Tatum Ann — WDA6623 — position and weather

sailwx.info

Track history (hours):
 
Tides and Currents Weather Stations Pressure Air Temp Water Temp Dewpoint Dewpoint Depression Visibility Wind Speed Wind Dir Waves Ship Positions

Tatum Ann

Owner: Crosby Tugs, LLC, Golden Meadow, LA. More information available from US FCC via Universal Licensing System and Coast Guard Vessel Documentation Center.

Last reported at 2018-Feb-24 19:30 UTC. Time now 2018-Feb-24 19:40 UTC.
Position N 29°33' W 090°42'.

; draft 2 m.

Type: Towing. MMSI: 366834390.

Date/timePositionNaut miles runAvg speedWind from/ knotsBaromVisibWave heightAir tempDewpointWater temp
2018-Feb-24 19:30N 29°33' W 090°42'0 0.0
2018-Feb-24 19:00N 29°33' W 090°42'0 0.0
2018-Feb-24 18:30N 29°33' W 090°42'0 0.0
2018-Feb-24 18:00N 29°33' W 090°42'0 0.0
2018-Feb-24 17:30N 29°33' W 090°42'0 0.0
2018-Feb-24 17:00N 29°33' W 090°42'0 0.0
2018-Feb-24 16:30N 29°33' W 090°42'0 0.0
2018-Feb-24 16:00N 29°33' W 090°42'0 0.0
2018-Feb-24 15:31N 29°33' W 090°42'0 0.0
2018-Feb-24 15:00N 29°33' W 090°42'0 0.0
2018-Feb-24 14:27N 29°33' W 090°42'0 0.0
2018-Feb-24 14:00N 29°33' W 090°42'0 0.0
2018-Feb-24 13:30N 29°33' W 090°42'0 0.0
2018-Feb-24 13:00N 29°33' W 090°42'0 0.0
2018-Feb-24 12:30N 29°33' W 090°42'0 0.0
2018-Feb-24 12:00N 29°33' W 090°42'0 0.0
2018-Feb-24 11:30N 29°33' W 090°42'0 0.0
2018-Feb-24 11:00N 29°33' W 090°42'0 0.0
2018-Feb-24 10:30N 29°33' W 090°42'0 0.0
2018-Feb-24 10:00N 29°33' W 090°42'0 0.0
2018-Feb-24 09:30N 29°33' W 090°42'0 0.0
2018-Feb-24 09:01N 29°33' W 090°42'0 0.0
2018-Feb-24 08:30N 29°33' W 090°42'0 0.0
2018-Feb-24 08:00N 29°33' W 090°42'0 0.0
2018-Feb-24 07:30N 29°33' W 090°42'0 0.0
2018-Feb-24 07:00N 29°33' W 090°42'0 0.0
2018-Feb-24 06:31N 29°33' W 090°42'0 0.0
2018-Feb-24 06:00N 29°33' W 090°42'0 0.0
2018-Feb-24 05:30N 29°33' W 090°42'0 0.0
2018-Feb-24 05:00N 29°33' W 090°42'0 0.0
2018-Feb-24 04:30N 29°33' W 090°42'0 0.0
2018-Feb-24 04:00N 29°33' W 090°42'0 0.0
2018-Feb-24 03:30N 29°33' W 090°42'0 0.0
2018-Feb-24 03:00N 29°33' W 090°42'0 0.0
2018-Feb-24 02:30N 29°33' W 090°42'0 0.0
2018-Feb-24 02:00N 29°33' W 090°42'0 0.0
2018-Feb-24 01:30N 29°33' W 090°42'0 0.0
2018-Feb-24 01:00N 29°33' W 090°42'0 0.0
2018-Feb-24 00:30N 29°33' W 090°42'0 0.0
2018-Feb-24 00:00N 29°33' W 090°42'0 0.0
2018-Feb-23 23:30N 29°33' W 090°42'0 0.0
2018-Feb-23 23:00N 29°33' W 090°42'0 0.0
2018-Feb-23 22:30N 29°33' W 090°42'0 0.0
2018-Feb-23 22:00N 29°33' W 090°42'0 0.0
2018-Feb-23 21:30N 29°33' W 090°42'0 0.0
2018-Feb-23 21:00N 29°33' W 090°42'0 0.0
2018-Feb-23 20:30N 29°33' W 090°42'0 0.0
2018-Feb-23 20:00N 29°33' W 090°42'0 0.0
2018-Feb-23 19:30N 29°33' W 090°42'0 0.0
2018-Feb-23 19:00N 29°33' W 090°42'0 0.0
2018-Feb-23 18:30N 29°33' W 090°42'0 0.0
2018-Feb-23 18:00N 29°33' W 090°42'0 0.0
2018-Feb-23 17:30N 29°33' W 090°42'0 0.0
2018-Feb-23 17:00N 29°33' W 090°42'0 0.0
2018-Feb-23 16:30N 29°33' W 090°42'0 0.0
2018-Feb-23 16:00N 29°33' W 090°42'0 0.0
2018-Feb-23 15:30N 29°33' W 090°42'0 0.0
2018-Feb-23 15:00N 29°33' W 090°42'0 0.0
2018-Feb-23 14:30N 29°33' W 090°42'0 0.0
2018-Feb-23 14:00N 29°33' W 090°42'0 0.0
2018-Feb-23 13:30N 29°33' W 090°42'0 0.0
2018-Feb-23 13:00N 29°33' W 090°42'0 0.0
2018-Feb-23 12:30N 29°33' W 090°42'0 0.0
2018-Feb-23 12:00N 29°33' W 090°42'0 0.0
2018-Feb-23 11:30N 29°33' W 090°42'0 0.0
2018-Feb-23 11:00N 29°33' W 090°42'0 0.0
2018-Feb-23 10:31N 29°33' W 090°42'0 0.0
2018-Feb-23 10:00N 29°33' W 090°42'0 0.0
2018-Feb-23 09:30N 29°33' W 090°42'0 0.1
2018-Feb-23 09:01N 29°33' W 090°42'0 0.0
2018-Feb-23 08:29N 29°33' W 090°42'0 0.0
2018-Feb-23 08:00N 29°33' W 090°42'1 2.9
2018-Feb-23 07:30N 29°31' W 090°42'4 7.8
2018-Feb-23 07:00N 29°28' W 090°43'1 0.2
2018-Feb-23 01:02N 29°26' W 090°43'1 8.2
2018-Feb-23 00:54N 29°27' W 090°43'3 8.2
2018-Feb-23 00:30N 29°31' W 090°43'4 7.3
2018-Feb-23 00:00N 29°34' W 090°43'0 0.0
2018-Feb-22 23:30N 29°34' W 090°43'0 0.0
2018-Feb-22 23:00N 29°34' W 090°43'3 5.5
2018-Feb-22 22:30N 29°37' W 090°42'3 6.6
2018-Feb-22 22:00N 29°35' W 090°39'2 4.9
2018-Feb-22 21:30N 29°35' W 090°36'0 0.1
2018-Feb-22 21:00N 29°35' W 090°36'0 0.0
2018-Feb-22 20:30N 29°35' W 090°36'0 0.0
2018-Feb-22 20:00N 29°35' W 090°36'0 0.0
2018-Feb-22 19:30N 29°35' W 090°36'0 0.0
2018-Feb-22 19:00N 29°35' W 090°36'0 0.0
2018-Feb-22 18:30N 29°35' W 090°36'0 0.0
2018-Feb-22 18:00N 29°35' W 090°36'0 0.0
2018-Feb-22 17:30N 29°35' W 090°36'0 0.0
2018-Feb-22 17:00N 29°35' W 090°36'0 0.0
2018-Feb-22 16:30N 29°35' W 090°36'0 0.0
2018-Feb-22 16:00N 29°35' W 090°36'0 0.0
2018-Feb-22 15:30N 29°35' W 090°36'0 0.0
2018-Feb-22 15:00N 29°35' W 090°36'0 0.0
2018-Feb-22 14:30N 29°35' W 090°36'1 2.1
2018-Feb-22 14:00N 29°35' W 090°37'3 6.9
2018-Feb-22 13:31N 29°36' W 090°40'0 0.1
2018-Feb-22 13:00N 29°36' W 090°40'0 0.1
2018-Feb-22 12:30N 29°36' W 090°40'0 0.0
2018-Feb-22 12:00N 29°36' W 090°40'0 0.0
2018-Feb-22 11:30N 29°36' W 090°40'0 0.0
2018-Feb-22 11:00N 29°36' W 090°40'0 0.0
2018-Feb-22 10:30N 29°36' W 090°40'0 0.0
2018-Feb-22 10:00N 29°36' W 090°40'0 0.0
2018-Feb-22 09:30N 29°36' W 090°40'0 0.0
2018-Feb-22 09:00N 29°36' W 090°40'0 0.0
2018-Feb-22 08:30N 29°36' W 090°40'0 0.0
2018-Feb-22 08:00N 29°36' W 090°40'0 0.0
2018-Feb-22 07:30N 29°36' W 090°40'0 0.0
2018-Feb-22 07:00N 29°36' W 090°40'0 0.0
2018-Feb-22 06:30N 29°36' W 090°40'0 0.0
2018-Feb-22 06:00N 29°36' W 090°40'0 0.0
2018-Feb-22 05:30N 29°36' W 090°40'0 0.0
2018-Feb-22 05:01N 29°36' W 090°40'0 0.0
2018-Feb-22 04:31N 29°36' W 090°40'0 0.0
2018-Feb-22 04:00N 29°36' W 090°40'0 0.0
2018-Feb-22 03:30N 29°36' W 090°40'0 0.0
2018-Feb-22 03:00N 29°36' W 090°40'0 0.0
2018-Feb-22 02:30N 29°36' W 090°40'0 0.0
2018-Feb-22 02:00N 29°36' W 090°40'0 0.0
2018-Feb-22 01:30N 29°36' W 090°40'0 0.0
2018-Feb-22 01:00N 29°36' W 090°40'0 0.0
2018-Feb-22 00:30N 29°36' W 090°40'0 0.0
2018-Feb-22 00:01N 29°36' W 090°40'0 0.0
2018-Feb-21 23:30N 29°36' W 090°40'0 0.0
2018-Feb-21 23:00N 29°36' W 090°40'0 0.0
2018-Feb-21 22:30N 29°36' W 090°40'0 0.0
2018-Feb-21 22:00N 29°36' W 090°40'0 0.0
2018-Feb-21 21:30N 29°36' W 090°40'0 0.0
2018-Feb-21 21:00N 29°36' W 090°40'0 0.0
2018-Feb-21 20:30N 29°36' W 090°40'0 0.0
2018-Feb-21 20:00N 29°36' W 090°40'0 0.0
2018-Feb-21 19:30N 29°36' W 090°40'0 0.0
2018-Feb-21 19:00N 29°36' W 090°40'0 0.0
2018-Feb-21 18:30N 29°36' W 090°40'1 2.2
2018-Feb-21 17:59N 29°36' W 090°39'3 6.0
2018-Feb-21 17:30N 29°35' W 090°36'0 0.2
2018-Feb-21 17:00N 29°35' W 090°36'0 0.0
2018-Feb-21 16:30N 29°35' W 090°36'0 0.0
2018-Feb-21 16:00N 29°35' W 090°36'0 0.9
2018-Feb-21 15:30N 29°35' W 090°36'3 5.6
2018-Feb-21 15:00N 29°36' W 090°39'1 2.6
2018-Feb-21 14:30N 29°36' W 090°40'4 7.4
2018-Feb-21 14:00N 29°35' W 090°36'1 1.3
2018-Feb-21 13:30N 29°35' W 090°36'0 0.0
2018-Feb-21 13:00N 29°35' W 090°36'0 0.0
2018-Feb-21 12:30N 29°35' W 090°36'0 0.0
2018-Feb-21 12:00N 29°35' W 090°36'0 0.0
2018-Feb-21 11:30N 29°35' W 090°36'0 0.0
2018-Feb-21 11:00N 29°35' W 090°36'0 0.0
2018-Feb-21 10:30N 29°35' W 090°36'0 0.0
2018-Feb-21 10:00N 29°35' W 090°36'0 0.0
2018-Feb-21 09:30N 29°35' W 090°36'0 0.0
2018-Feb-21 09:00N 29°35' W 090°36'0 0.0
2018-Feb-21 08:28N 29°35' W 090°36'0 0.0
2018-Feb-21 08:00N 29°35' W 090°36'0 0.0
2018-Feb-21 07:30N 29°35' W 090°36'0 0.0
2018-Feb-21 07:00N 29°35' W 090°36'0 0.0
2018-Feb-21 06:30N 29°35' W 090°36'0 0.0
2018-Feb-21 05:59N 29°35' W 090°36'0 0.0
2018-Feb-21 05:30N 29°35' W 090°36'0 0.0
2018-Feb-21 05:00N 29°35' W 090°36'0 0.0
2018-Feb-21 04:30N 29°35' W 090°36'0 0.0
2018-Feb-21 04:00N 29°35' W 090°36'0 0.0
2018-Feb-21 03:30N 29°35' W 090°36'0 0.0
2018-Feb-21 03:00N 29°35' W 090°36'0 0.0
2018-Feb-21 02:30N 29°35' W 090°36'0 0.0
2018-Feb-21 02:00N 29°35' W 090°36'0 0.0
2018-Feb-21 01:29N 29°35' W 090°36'0 0.0
2018-Feb-21 01:00N 29°35' W 090°36'0 0.0
2018-Feb-21 00:30N 29°35' W 090°36'0 0.0
2018-Feb-21 00:00N 29°35' W 090°36'0 0.0
2018-Feb-20 23:30N 29°35' W 090°36'0 0.0
2018-Feb-20 23:00N 29°35' W 090°36'0 0.0
2018-Feb-20 22:30N 29°35' W 090°36'0 0.0
2018-Feb-20 22:00N 29°35' W 090°36'0 0.0
2018-Feb-20 21:30N 29°35' W 090°36'0 0.0
2018-Feb-20 21:00N 29°35' W 090°36'0 0.0
2018-Feb-20 20:30N 29°35' W 090°36'0 0.0
2018-Feb-20 20:00N 29°35' W 090°36'0 0.0
2018-Feb-20 19:30N 29°35' W 090°36'0 0.0
2018-Feb-20 19:00N 29°35' W 090°36'0 0.6
2018-Feb-20 18:30N 29°35' W 090°36'4 8.0
2018-Feb-20 18:00N 29°34' W 090°31'  
2018-Feb-17 23:46N 29°34' W 090°29'2 8.6
2018-Feb-17 23:30N 29°34' W 090°32'4 8.1
2018-Feb-17 23:01N 29°35' W 090°36'4 7.8
2018-Feb-17 22:30N 29°36' W 090°40'2 4.7
2018-Feb-17 22:00N 29°35' W 090°43'4 7.1
2018-Feb-17 21:30N 29°33' W 090°46'4 8.5
2018-Feb-17 21:00N 29°32' W 090°50'4 7.5
2018-Feb-17 20:30N 29°33' W 090°55'  
Track history (hours):
 
Tides and Currents Weather Stations Pressure Air Temp Water Temp Dewpoint Dewpoint Depression Visibility Wind Speed Wind Dir Waves Ship Positions

Tatum Ann

Owner: Crosby Tugs, LLC, Golden Meadow, LA. More information available from US FCC via Universal Licensing System and Coast Guard Vessel Documentation Center.

Last reported at 2018-Feb-24 19:30 UTC. Time now 2018-Feb-24 19:40 UTC.
Position N 29°33' W 090°42'.

; draft 2 m.

Type: Towing. MMSI: 366834390.

Date/timePositionNaut miles runAvg speedWind from/ knotsBaromVisibWave heightAir tempDewpointWater temp
2018-Feb-24 19:30N 29°33' W 090°42'0 0.0
2018-Feb-24 19:00N 29°33' W 090°42'0 0.0
2018-Feb-24 18:30N 29°33' W 090°42'0 0.0
2018-Feb-24 18:00N 29°33' W 090°42'0 0.0
2018-Feb-24 17:30N 29°33' W 090°42'0 0.0
2018-Feb-24 17:00N 29°33' W 090°42'0 0.0
2018-Feb-24 16:30N 29°33' W 090°42'0 0.0
2018-Feb-24 16:00N 29°33' W 090°42'0 0.0
2018-Feb-24 15:31N 29°33' W 090°42'0 0.0
2018-Feb-24 15:00N 29°33' W 090°42'0 0.0
2018-Feb-24 14:27N 29°33' W 090°42'0 0.0
2018-Feb-24 14:00N 29°33' W 090°42'0 0.0
2018-Feb-24 13:30N 29°33' W 090°42'0 0.0
2018-Feb-24 13:00N 29°33' W 090°42'0 0.0
2018-Feb-24 12:30N 29°33' W 090°42'0 0.0
2018-Feb-24 12:00N 29°33' W 090°42'0 0.0
2018-Feb-24 11:30N 29°33' W 090°42'0 0.0
2018-Feb-24 11:00N 29°33' W 090°42'0 0.0
2018-Feb-24 10:30N 29°33' W 090°42'0 0.0
2018-Feb-24 10:00N 29°33' W 090°42'0 0.0
2018-Feb-24 09:30N 29°33' W 090°42'0 0.0
2018-Feb-24 09:01N 29°33' W 090°42'0 0.0
2018-Feb-24 08:30N 29°33' W 090°42'0 0.0
2018-Feb-24 08:00N 29°33' W 090°42'0 0.0
2018-Feb-24 07:30N 29°33' W 090°42'0 0.0
2018-Feb-24 07:00N 29°33' W 090°42'0 0.0
2018-Feb-24 06:31N 29°33' W 090°42'0 0.0
2018-Feb-24 06:00N 29°33' W 090°42'0 0.0
2018-Feb-24 05:30N 29°33' W 090°42'0 0.0
2018-Feb-24 05:00N 29°33' W 090°42'0 0.0
2018-Feb-24 04:30N 29°33' W 090°42'0 0.0
2018-Feb-24 04:00N 29°33' W 090°42'0 0.0
2018-Feb-24 03:30N 29°33' W 090°42'0 0.0
2018-Feb-24 03:00N 29°33' W 090°42'0 0.0
2018-Feb-24 02:30N 29°33' W 090°42'0 0.0
2018-Feb-24 02:00N 29°33' W 090°42'0 0.0
2018-Feb-24 01:30N 29°33' W 090°42'0 0.0
2018-Feb-24 01:00N 29°33' W 090°42'0 0.0
2018-Feb-24 00:30N 29°33' W 090°42'0 0.0
2018-Feb-24 00:00N 29°33' W 090°42'0 0.0
2018-Feb-23 23:30N 29°33' W 090°42'0 0.0
2018-Feb-23 23:00N 29°33' W 090°42'0 0.0
2018-Feb-23 22:30N 29°33' W 090°42'0 0.0
2018-Feb-23 22:00N 29°33' W 090°42'0 0.0
2018-Feb-23 21:30N 29°33' W 090°42'0 0.0
2018-Feb-23 21:00N 29°33' W 090°42'0 0.0
2018-Feb-23 20:30N 29°33' W 090°42'0 0.0
2018-Feb-23 20:00N 29°33' W 090°42'0 0.0
2018-Feb-23 19:30N 29°33' W 090°42'0 0.0
2018-Feb-23 19:00N 29°33' W 090°42'0 0.0
2018-Feb-23 18:30N 29°33' W 090°42'0 0.0
2018-Feb-23 18:00N 29°33' W 090°42'0 0.0
2018-Feb-23 17:30N 29°33' W 090°42'0 0.0
2018-Feb-23 17:00N 29°33' W 090°42'0 0.0
2018-Feb-23 16:30N 29°33' W 090°42'0 0.0
2018-Feb-23 16:00N 29°33' W 090°42'0 0.0
2018-Feb-23 15:30N 29°33' W 090°42'0 0.0
2018-Feb-23 15:00N 29°33' W 090°42'0 0.0
2018-Feb-23 14:30N 29°33' W 090°42'0 0.0
2018-Feb-23 14:00N 29°33' W 090°42'0 0.0
2018-Feb-23 13:30N 29°33' W 090°42'0 0.0
2018-Feb-23 13:00N 29°33' W 090°42'0 0.0
2018-Feb-23 12:30N 29°33' W 090°42'0 0.0
2018-Feb-23 12:00N 29°33' W 090°42'0 0.0
2018-Feb-23 11:30N 29°33' W 090°42'0 0.0
2018-Feb-23 11:00N 29°33' W 090°42'0 0.0
2018-Feb-23 10:31N 29°33' W 090°42'0 0.0
2018-Feb-23 10:00N 29°33' W 090°42'0 0.0
2018-Feb-23 09:30N 29°33' W 090°42'0 0.1
2018-Feb-23 09:01N 29°33' W 090°42'0 0.0
2018-Feb-23 08:29N 29°33' W 090°42'0 0.0
2018-Feb-23 08:00N 29°33' W 090°42'1 2.9
2018-Feb-23 07:30N 29°31' W 090°42'4 7.8
2018-Feb-23 07:00N 29°28' W 090°43'1 0.2
2018-Feb-23 01:02N 29°26' W 090°43'1 8.2
2018-Feb-23 00:54N 29°27' W 090°43'3 8.2
2018-Feb-23 00:30N 29°31' W 090°43'4 7.3
2018-Feb-23 00:00N 29°34' W 090°43'0 0.0
2018-Feb-22 23:30N 29°34' W 090°43'0 0.0
2018-Feb-22 23:00N 29°34' W 090°43'3 5.5
2018-Feb-22 22:30N 29°37' W 090°42'3 6.6
2018-Feb-22 22:00N 29°35' W 090°39'2 4.9
2018-Feb-22 21:30N 29°35' W 090°36'0 0.1
2018-Feb-22 21:00N 29°35' W 090°36'0 0.0
2018-Feb-22 20:30N 29°35' W 090°36'0 0.0
2018-Feb-22 20:00N 29°35' W 090°36'0 0.0
2018-Feb-22 19:30N 29°35' W 090°36'0 0.0
2018-Feb-22 19:00N 29°35' W 090°36'0 0.0
2018-Feb-22 18:30N 29°35' W 090°36'0 0.0
2018-Feb-22 18:00N 29°35' W 090°36'0 0.0
2018-Feb-22 17:30N 29°35' W 090°36'0 0.0
2018-Feb-22 17:00N 29°35' W 090°36'0 0.0
2018-Feb-22 16:30N 29°35' W 090°36'0 0.0
2018-Feb-22 16:00N 29°35' W 090°36'0 0.0
2018-Feb-22 15:30N 29°35' W 090°36'0 0.0
2018-Feb-22 15:00N 29°35' W 090°36'0 0.0
2018-Feb-22 14:30N 29°35' W 090°36'1 2.1
2018-Feb-22 14:00N 29°35' W 090°37'3 6.9
2018-Feb-22 13:31N 29°36' W 090°40'0 0.1
2018-Feb-22 13:00N 29°36' W 090°40'0 0.1
2018-Feb-22 12:30N 29°36' W 090°40'0 0.0
2018-Feb-22 12:00N 29°36' W 090°40'0 0.0
2018-Feb-22 11:30N 29°36' W 090°40'0 0.0
2018-Feb-22 11:00N 29°36' W 090°40'0 0.0
2018-Feb-22 10:30N 29°36' W 090°40'0 0.0
2018-Feb-22 10:00N 29°36' W 090°40'0 0.0
2018-Feb-22 09:30N 29°36' W 090°40'0 0.0
2018-Feb-22 09:00N 29°36' W 090°40'0 0.0
2018-Feb-22 08:30N 29°36' W 090°40'0 0.0
2018-Feb-22 08:00N 29°36' W 090°40'0 0.0
2018-Feb-22 07:30N 29°36' W 090°40'0 0.0
2018-Feb-22 07:00N 29°36' W 090°40'0 0.0
2018-Feb-22 06:30N 29°36' W 090°40'0 0.0
2018-Feb-22 06:00N 29°36' W 090°40'0 0.0
2018-Feb-22 05:30N 29°36' W 090°40'0 0.0
2018-Feb-22 05:01N 29°36' W 090°40'0 0.0
2018-Feb-22 04:31N 29°36' W 090°40'0 0.0
2018-Feb-22 04:00N 29°36' W 090°40'0 0.0
2018-Feb-22 03:30N 29°36' W 090°40'0 0.0
2018-Feb-22 03:00N 29°36' W 090°40'0 0.0
2018-Feb-22 02:30N 29°36' W 090°40'0 0.0
2018-Feb-22 02:00N 29°36' W 090°40'0 0.0
2018-Feb-22 01:30N 29°36' W 090°40'0 0.0
2018-Feb-22 01:00N 29°36' W 090°40'0 0.0
2018-Feb-22 00:30N 29°36' W 090°40'0 0.0
2018-Feb-22 00:01N 29°36' W 090°40'0 0.0
2018-Feb-21 23:30N 29°36' W 090°40'0 0.0
2018-Feb-21 23:00N 29°36' W 090°40'0 0.0
2018-Feb-21 22:30N 29°36' W 090°40'0 0.0
2018-Feb-21 22:00N 29°36' W 090°40'0 0.0
2018-Feb-21 21:30N 29°36' W 090°40'0 0.0
2018-Feb-21 21:00N 29°36' W 090°40'0 0.0
2018-Feb-21 20:30N 29°36' W 090°40'0 0.0
2018-Feb-21 20:00N 29°36' W 090°40'0 0.0
2018-Feb-21 19:30N 29°36' W 090°40'0 0.0
2018-Feb-21 19:00N 29°36' W 090°40'0 0.0
2018-Feb-21 18:30N 29°36' W 090°40'1 2.2
2018-Feb-21 17:59N 29°36' W 090°39'3 6.0
2018-Feb-21 17:30N 29°35' W 090°36'0 0.2
2018-Feb-21 17:00N 29°35' W 090°36'0 0.0
2018-Feb-21 16:30N 29°35' W 090°36'0 0.0
2018-Feb-21 16:00N 29°35' W 090°36'0 0.9
2018-Feb-21 15:30N 29°35' W 090°36'3 5.6
2018-Feb-21 15:00N 29°36' W 090°39'1 2.6
2018-Feb-21 14:30N 29°36' W 090°40'4 7.4
2018-Feb-21 14:00N 29°35' W 090°36'1 1.3
2018-Feb-21 13:30N 29°35' W 090°36'0 0.0
2018-Feb-21 13:00N 29°35' W 090°36'0 0.0
2018-Feb-21 12:30N 29°35' W 090°36'0 0.0
2018-Feb-21 12:00N 29°35' W 090°36'0 0.0
2018-Feb-21 11:30N 29°35' W 090°36'0 0.0
2018-Feb-21 11:00N 29°35' W 090°36'0 0.0
2018-Feb-21 10:30N 29°35' W 090°36'0 0.0
2018-Feb-21 10:00N 29°35' W 090°36'0 0.0
2018-Feb-21 09:30N 29°35' W 090°36'0 0.0
2018-Feb-21 09:00N 29°35' W 090°36'0 0.0
2018-Feb-21 08:28N 29°35' W 090°36'0 0.0
2018-Feb-21 08:00N 29°35' W 090°36'0 0.0
2018-Feb-21 07:30N 29°35' W 090°36'0 0.0
2018-Feb-21 07:00N 29°35' W 090°36'0 0.0
2018-Feb-21 06:30N 29°35' W 090°36'0 0.0
2018-Feb-21 05:59N 29°35' W 090°36'0 0.0
2018-Feb-21 05:30N 29°35' W 090°36'0 0.0
2018-Feb-21 05:00N 29°35' W 090°36'0 0.0
2018-Feb-21 04:30N 29°35' W 090°36'0 0.0
2018-Feb-21 04:00N 29°35' W 090°36'0 0.0
2018-Feb-21 03:30N 29°35' W 090°36'0 0.0
2018-Feb-21 03:00N 29°35' W 090°36'0 0.0
2018-Feb-21 02:30N 29°35' W 090°36'0 0.0
2018-Feb-21 02:00N 29°35' W 090°36'0 0.0
2018-Feb-21 01:29N 29°35' W 090°36'0 0.0
2018-Feb-21 01:00N 29°35' W 090°36'0 0.0
2018-Feb-21 00:30N 29°35' W 090°36'0 0.0
2018-Feb-21 00:00N 29°35' W 090°36'0 0.0
2018-Feb-20 23:30N 29°35' W 090°36'0 0.0
2018-Feb-20 23:00N 29°35' W 090°36'0 0.0
2018-Feb-20 22:30N 29°35' W 090°36'0 0.0
2018-Feb-20 22:00N 29°35' W 090°36'0 0.0
2018-Feb-20 21:30N 29°35' W 090°36'0 0.0
2018-Feb-20 21:00N 29°35' W 090°36'0 0.0
2018-Feb-20 20:30N 29°35' W 090°36'0 0.0
2018-Feb-20 20:00N 29°35' W 090°36'0 0.0
2018-Feb-20 19:30N 29°35' W 090°36'0 0.0
2018-Feb-20 19:00N 29°35' W 090°36'0 0.6
2018-Feb-20 18:30N 29°35' W 090°36'4 8.0
2018-Feb-20 18:00N 29°34' W 090°31'  
2018-Feb-17 23:46N 29°34' W 090°29'2 8.6
2018-Feb-17 23:30N 29°34' W 090°32'4 8.1
2018-Feb-17 23:01N 29°35' W 090°36'4 7.8
2018-Feb-17 22:30N 29°36' W 090°40'2 4.7
2018-Feb-17 22:00N 29°35' W 090°43'4 7.1
2018-Feb-17 21:30N 29°33' W 090°46'4 8.5
2018-Feb-17 21:00N 29°32' W 090°50'4 7.5
2018-Feb-17 20:30N 29°33' W 090°55'  

Dump ship's entire track history